Latest Coastal Weather Observations for St Lawrence

IDQ60701

Issued at 12:31 am EST Friday 20 October 2017 (issued every 10 minutes, with the page automatically refreshed every 10 minutes)

About coastal observations | Map of coastal stations | Coastal observations for QLD | Marine services | Other Formats
Station Details ID: 033210 Name: ST LAWRENCE Lat: -22.35 Lon: 149.52 Height: 9.19 m
Data from the previous 72 hours. | See also: Recent months at St Lawrence
Date/Time
EST
Temp
°C
Wind Pressure Rain since
9am
mm
Weather Cloud Vis
km
Sea
Height
m
Swell
Dir  Spd
kts
Gust
kts
hPa Trend Height
m
Period
s
Dir
20/12:30am 20.5 SSE 4 6 1019.5 - 0.4 - - - - - - -
20/12:00am 20.8 SSE 5 7 1019.9 - 0.4 - - - - - - -
 
Date/Time
EST
Temp
°C
Wind Pressure Rain since
9am
mm
Weather Cloud Vis
km
Sea
Height
m
Swell
Dir  Spd
kts
Gust
kts
hPa Trend Height
m
Period
s
Dir
19/11:30pm 20.9 SSE 5 6 1020.2 - 0.4 - - - - - - -
19/11:00pm 21.5 S 5 6 1020.5 - 0.4 - - - - - - -
19/10:30pm 21.7 SSE 4 6 1020.8 - 0.4 - - - - - - -
19/10:00pm 22.2 SSE 4 6 1020.9 - 0.4 - - - - - - -
19/09:30pm 22.6 SE 5 9 1020.7 - 0.4 - - - - - - -
19/09:00pm 22.7 ESE 5 8 1020.5 - 0.4 - - - - - - -
19/08:30pm 23.0 ESE 5 8 1020.1 - 0.4 - - - - - - -
19/08:00pm 23.2 ESE 5 8 1020.0 - 0.4 - - - - - - -
19/07:30pm 23.4 ESE 4 7 1020.1 - 0.4 - - - - - - -
19/07:00pm 23.6 SE 5 7 1019.9 - 0.4 - - - - - - -
19/06:30pm 23.8 ESE 5 7 1019.4 - 0.4 - - - - - - -
19/06:00pm 24.0 ESE 5 9 1018.9 - 0.4 - - - - - - -
19/05:30pm 24.1 ESE 7 11 1018.5 - 0.4 - - - - - - -
19/05:00pm 24.9 ENE 7 12 1018.1 - 0.4 - - - - - - -
19/04:30pm 25.1 ENE 9 16 1018.0 - 0.4 - - - - - - -
19/04:00pm 24.8 ENE 8 12 1017.8 - 0.4 - - - - - - -
19/03:30pm 25.9 E 11 18 1017.5 - 0.4 - - - - - - -
19/03:00pm 26.6 ENE 12 21 1017.5 - 0.4 - - - - - - -
19/02:30pm 25.9 ENE 10 18 1017.7 - 0.4 - - - - - - -
19/02:00pm 25.8 ENE 11 17 1018.1 - 0.4 - - - - - - -
19/01:30pm 26.1 ENE 11 17 1018.3 - 0.4 - - - - - - -
19/01:00pm 27.0 ENE 14 21 1018.3 - 0.4 - - - - - - -
19/12:30pm 26.1 E 10 18 1018.6 - 0.4 - - - - - - -
19/12:00pm 25.0 ENE 12 22 1018.9 - 0.4 Rain - - - - - -
19/11:30am 27.1 ENE 11 19 1018.6 - 0.0 - - - - - - -
19/11:00am 26.2 E 10 18 1018.9 - 0.0 - - - - - - -
19/10:30am 27.4 E 9 15 1018.9 - 0.0 - - - - - - -
19/10:00am 25.3 E 6 9 1019.2 - 0.0 - - - - - - -
19/09:30am 25.0 ESE 7 13 1019.2 - 0.0 - - - - - - -
19/09:00am 25.1 ESE 7 11 1019.0 - 20.4 - - - - - - -
19/08:30am 24.9 ESE 7 11 1018.8 - 20.4 - - - - - - -
19/08:00am 24.6 ESE 8 12 1018.6 - 20.4 - - - - - - -
19/07:30am 24.8 ESE 8 14 1018.3 - 20.4 - - - - - - -
19/07:00am 23.2 SE 7 11 1018.2 - 20.4 - - - - - - -
19/06:30am 22.7 ESE 5 7 1018.2 - 20.4 - - - - - - -
19/06:00am 22.3 SE 5 8 1017.9 - 20.4 Recent precip. - - - - - -
19/05:30am 22.5 E 7 12 1017.7 - 20.0 - - - - - - -
19/05:00am 22.9 ESE 7 11 1017.3 - 19.4 - - - - - - -
19/04:30am 22.7 ESE 7 12 1016.8 - 19.4 - - - - - - -
19/04:00am 22.9 ESE 8 14 1016.7 - 19.4 - - - - - - -
19/03:30am 23.0 ESE 8 13 1016.5 - 19.4 - - - - - - -
19/03:00am 23.4 ESE 7 12 1016.5 - 19.4 - - - - - - -
19/02:30am 23.6 ESE 8 13 1016.6 - 19.4 - - - - - - -
19/02:00am 23.7 E 7 15 1016.9 - 19.4 - - - - - - -
19/01:30am 23.8 E 7 12 1017.4 - 19.4 - - - - - - -
19/01:00am 23.9 ESE 8 12 1017.8 - 19.4 - - - - - - -
19/12:30am 23.8 E 7 10 1017.9 - 19.4 - - - - - - -
19/12:00am 23.9 E 8 17 1018.1 - 19.4 - - - - - - -
 
Date/Time
EST
Temp
°C
Wind Pressure Rain since
9am
mm
Weather Cloud Vis
km
Sea
Height
m
Swell
Dir  Spd
kts
Gust
kts
hPa Trend Height
m
Period
s
Dir
18/11:30pm 24.4 E 7 13 1018.2 - 19.4 - - - - - - -
18/11:00pm 24.7 E 7 12 1018.3 - 19.4 - - - - - - -
18/10:30pm 24.7 E 8 14 1018.3 - 19.4 - - - - - - -
18/10:00pm 24.8 E 8 14 1018.4 - 19.4 - - - - - - -
18/09:30pm 24.9 E 7 13 1018.3 - 19.4 - - - - - - -
18/09:00pm 24.9 E 8 13 1017.9 - 19.4 - - - - - - -
18/08:30pm 24.8 E 7 11 1017.6 - 19.4 - - - - - - -
18/08:00pm 24.9 ENE 7 13 1017.2 - 19.4 - - - - - - -
18/07:30pm 25.0 ENE 10 15 1017.1 - 19.4 - - - - - - -
18/07:00pm 25.3 ENE 9 15 1016.7 - 19.4 - - - - - - -
18/06:30pm 25.4 ENE 10 17 1016.2 - 19.4 - - - - - - -
18/06:00pm 25.6 ENE 12 19 1015.5 - 19.4 - - - - - - -
18/05:30pm 25.9 ENE 10 16 1015.1 - 19.4 - - - - - - -
18/05:00pm 26.3 ENE 12 19 1014.5 - 19.4 - - - - - - -
18/04:30pm 26.7 ENE 10 17 1014.0 - 19.4 - - - - - - -
18/04:00pm 27.1 ENE 10 16 1013.7 - 19.4 - - - - - - -
18/03:30pm 27.0 NE 13 18 1013.7 - 19.4 - - - - - - -
18/03:00pm 27.3 NE 12 19 1014.0 - 19.4 - - - - - - -
18/02:30pm 27.7 NE 11 17 1014.0 - 19.4 - - - - - - -
18/02:00pm 27.0 NE 11 18 1014.2 - 19.4 - - - - - - -
18/01:30pm 26.0 NNE 8 12 1014.3 - 19.4 - - - - - - -
18/01:00pm 22.3 NNE 15 26 1015.1 - 19.4 - - - - - - -
18/12:57pm 22.4 NE 15 26 1015.2 - 19.0 - - - - - - -
18/12:30pm 23.0 ENE 9 15 1015.3 - 12.0 - - - - - - -
18/12:00pm 26.6 NE 10 15 1015.1 - 4.6 - - - - - - -
18/11:30am 26.9 ENE 10 14 1015.4 - 4.6 - - - - - - -
18/11:00am 26.2 NE 8 13 1015.8 - 4.6 - - - - - - -
18/10:30am 25.5 ENE 6 11 1016.2 - 4.6 - - - - - - -
18/10:00am 24.4 E 7 10 1016.4 - 4.6 - - - - - - -
18/09:30am 22.8 SE 7 12 1016.4 - 1.4 - - - - - - -
18/09:00am 23.4 ESE 5 9 1016.3 - 43.8 Recent precip. - - - - - -
18/08:30am 22.7 E 5 9 1015.9 - 43.8 - - - - - - -
18/08:00am 23.4 ESE 5 7 1015.2 - 42.6 - - - - - - -
18/07:30am 22.7 ESE 5 8 1014.9 - 42.6 - - - - - - -
18/07:00am 22.1 ESE 6 9 1014.8 - 42.2 - - - - - - -
18/06:30am 21.6 ESE 6 9 1014.4 - 42.2 - - - - - - -
18/06:00am 21.3 SE 5 7 1013.6 - 42.2 Recent precip. - - - - - -
18/05:30am 21.1 SE 6 9 1013.4 - 42.2 - - - - - - -
18/05:00am 20.8 SE 6 9 1013.2 - 42.0 - - - - - - -
18/04:30am 21.1 SE 4 6 1013.1 - 41.4 - - - - - - -
18/04:00am 21.1 SE 5 8 1012.9 - 40.2 - - - - - - -
18/03:30am 21.2 SE 5 8 1012.7 - 38.4 - - - - - - -
18/03:00am 21.2 SSE 5 7 1012.7 - 37.2 Rain - - - - - -
18/02:30am 21.2 SW 4 6 1012.7 - 37.0 - - - - - - -
18/02:00am 21.1 CALM 0 0 1012.9 - 36.2 - - - - - - -
18/01:30am 21.0 NNW 2 6 1013.2 - 34.4 - - - - - - -
18/01:00am 20.9 SSE 7 10 1013.3 - 33.0 - - - - - - -
18/12:30am 20.8 S 7 10 1013.5 - 32.4 - - - - - - -
18/12:00am 20.8 SSW 4 6 1013.9 - 32.4 Recent precip. - - - - - -
 
Date/Time
EST
Temp
°C
Wind Pressure Rain since
9am
mm
Weather Cloud Vis
km
Sea
Height
m
Swell
Dir  Spd
kts
Gust
kts
hPa Trend Height
m
Period
s
Dir
17/11:30pm 20.8 SSW 4 6 1014.4 - 32.4 - - - - - - -
17/11:00pm 20.8 S 4 5 1014.3 - 32.2 - - - - - - -
17/10:30pm 20.9 SSE 5 7 1014.4 - 32.0 - - - - - - -
17/10:00pm 20.7 SSE 4 6 1014.2 - 31.2 - - - - - - -
17/09:30pm 20.7 S 3 4 1014.1 - 30.4 - - - - - - -
17/09:00pm 20.8 SSE 3 5 1014.2 - 29.4 Rain - - - - - -
17/08:30pm 20.9 ENE 7 12 1014.3 - 25.2 - - - - - - -
17/08:00pm 21.5 SSE 4 7 1013.3 - 18.4 - - - - - - -
17/07:30pm 21.3 SE 4 5 1013.2 - 18.2 - - - - - - -
17/07:00pm 21.1 SE 4 6 1013.1 - 17.6 - - - - - - -
17/06:30pm 23.8 E 3 12 1012.8 - 1.8 - - - - - - -
17/06:00pm 25.0 SE 3 5 1012.1 - 1.2 - - - - - - -
17/05:30pm 25.7 S 4 6 1011.8 - 1.2 - - - - - - -
17/05:00pm 25.8 SSW 3 6 1011.6 - 1.2 - - - - - - -
17/04:30pm 26.2 S 3 6 1011.2 - 1.2 - - - - - - -
17/04:00pm 26.8 E 4 7 1010.7 - 1.2 - - - - - - -
17/03:30pm 26.8 E 3 6 1010.6 - 1.2 - - - - - - -
17/03:00pm 27.0 WNW 2 5 1010.6 - 1.2 - - - - - - -
17/02:30pm 26.4 NNW 4 6 1010.9 - 1.2 - - - - - - -
17/02:00pm 26.3 W 2 4 1011.1 - 1.2 - - - - - - -
17/01:30pm 24.7 W 6 9 1011.8 - 1.2 - - - - - - -
17/01:00pm 25.3 SSW 3 5 1012.3 - 1.2 - - - - - - -
17/12:30pm 23.3 WSW 6 8 1012.5 - 1.2 - - - - - - -
17/12:00pm 23.1 NNE 8 15 1013.1 - 1.2 Rain - - - - - -
17/11:30am 26.1 ENE 8 13 1013.3 - 0.2 - - - - - - -
17/11:00am 26.0 SE 5 8 1013.2 - 0.2 - - - - - - -
17/10:30am 25.7 ESE 7 10 1013.6 - 0.2 - - - - - - -
17/10:00am 26.1 ESE 5 7 1014.0 - 0.2 - - - - - - -
17/09:30am 25.1 SE 4 7 1014.2 - 0.0 - - - - - - -
17/09:00am 23.9 SSE 7 11 1014.2 - 2.8 - - - - - - -
17/08:30am 23.4 SSE 5 7 1014.0 - 2.8 - - - - - - -
17/08:00am 22.6 SSE 5 7 1013.5 - 2.8 - - - - - - -
17/07:30am 21.7 S 4 6 1013.2 - 2.8 - - - - - - -
17/07:00am 21.1 S 5 7 1012.6 - 2.8 - - - - - - -
17/06:30am 20.6 S 5 7 1012.1 - 2.8 - - - - - - -
17/06:00am 20.3 S 5 8 1011.5 - 2.8 - - - - - - -
17/05:30am 20.2 S 5 8 1011.2 - 2.8 - - - - - - -
17/05:00am 20.2 SSE 5 7 1011.2 - 2.8 - - - - - - -
17/04:30am 20.4 SSE 5 8 1011.1 - 2.8 - - - - - - -
17/04:00am 20.6 S 4 5 1011.1 - 2.6 - - - - - - -
17/03:30am 20.6 S 3 5 1011.0 - 1.4 - - - - - - -
17/03:00am 20.7 S 4 7 1010.7 - 1.0 Rain - - - - - -
17/02:30am 20.9 S 6 9 1010.8 - 0.8 - - - - - - -
17/02:00am 21.5 SSE 5 7 1011.5 - 0.0 - - - - - - -
17/01:30am 22.2 SSE 5 8 1012.1 - 0.0 - - - - - - -
17/01:00am 22.2 S 4 6 1012.4 - 0.0 - - - - - - -

Other Formats:

Comma delimited format used in spreadsheet applications
http://www.bom.gov.au/fwo/IDQ60701/IDQ60701.95369.axf

JavaScript Object Notation format (JSON) in row-major order
http://www.bom.gov.au/fwo/IDQ60701/IDQ60701.95369.json